createdAt,value
2023-04-07T00:00:26.843Z,13.98
2023-04-07T00:02:54.173Z,14.13
2023-04-07T00:05:20.950Z,14.65
2023-04-07T00:07:55.867Z,18.52
2023-04-07T00:10:23.987Z,14.80
2023-04-07T00:12:52.049Z,15.38
2023-04-07T00:15:18.688Z,14.05
2023-04-07T00:17:45.415Z,12.70
2023-04-07T00:20:12.570Z,16.52
2023-04-07T00:22:39.781Z,14.30
2023-04-07T00:25:07.087Z,13.88
2023-04-07T00:27:33.808Z,15.63
2023-04-07T00:30:00.420Z,14.55
2023-04-07T00:32:27.096Z,11.18
2023-04-07T00:34:53.708Z,13.45
2023-04-07T00:37:20.505Z,14.35
2023-04-07T00:39:47.195Z,14.30
2023-04-07T00:42:13.839Z,20.30
2023-04-07T00:44:40.633Z,12.65
2023-04-07T00:47:07.272Z,18.00
2023-04-07T00:49:34.150Z,20.17
2023-04-07T00:52:01.573Z,18.55
2023-04-07T00:54:30.877Z,15.32
2023-04-07T00:56:58.218Z,17.25
2023-04-07T00:59:25.558Z,12.25
2023-04-07T01:01:54.930Z,14.02
2023-04-07T01:04:43.924Z,17.05
2023-04-07T01:07:18.156Z,11.65
2023-04-07T01:10:10.707Z,10.80
2023-04-07T01:15:12.291Z,10.85
2023-04-07T01:17:44.133Z,10.75
2023-04-07T01:20:14.212Z,11.43
2023-04-07T01:22:46.483Z,11.82
2023-04-07T01:27:48.514Z,12.38
2023-04-07T01:30:17.250Z,13.07
2023-04-07T01:32:46.993Z,14.35
2023-04-07T01:35:14.508Z,16.55
2023-04-07T01:37:41.843Z,15.48
2023-04-07T01:40:10.129Z,20.23
2023-04-07T01:42:39.216Z,22.00
2023-04-07T01:45:07.043Z,20.90
2023-04-07T01:47:37.628Z,18.95
2023-04-07T01:50:06.481Z,19.33
2023-04-07T01:52:34.975Z,19.25
2023-04-07T01:55:01.760Z,18.48
2023-04-07T01:57:28.486Z,18.70
2023-04-07T01:59:55.541Z,23.00
2023-04-07T02:02:22.440Z,25.35
2023-04-07T02:04:56.937Z,24.02
2023-04-07T02:07:53.173Z,26.20
2023-04-07T02:10:23.273Z,29.42
2023-04-07T02:12:50.032Z,19.15
2023-04-07T02:15:17.506Z,21.52
2023-04-07T02:17:49.256Z,20.92
2023-04-07T02:20:17.634Z,23.23
2023-04-07T02:22:47.280Z,26.00
2023-04-07T02:25:28.812Z,23.25
2023-04-07T02:27:56.957Z,33.13
2023-04-07T02:30:24.433Z,26.95
2023-04-07T02:32:51.538Z,21.48
2023-04-07T02:35:18.413Z,27.88
2023-04-07T02:37:46.420Z,26.15
2023-04-07T02:40:13.559Z,25.27
2023-04-07T02:42:40.849Z,27.65
2023-04-07T02:45:09.032Z,29.77
2023-04-07T02:47:37.054Z,29.40
2023-04-07T02:50:04.295Z,24.77
2023-04-07T02:52:31.094Z,35.67
2023-04-07T02:54:57.781Z,27.17
2023-04-07T02:57:24.446Z,26.60
2023-04-07T02:59:51.123Z,29.73
2023-04-07T03:02:17.839Z,32.13
2023-04-07T03:04:44.594Z,23.50
2023-04-07T03:07:11.299Z,28.95
2023-04-07T03:09:37.898Z,17.52
2023-04-07T03:12:04.650Z,27.92
2023-04-07T03:14:31.557Z,10.40
2023-04-07T03:16:58.186Z,12.93
2023-04-07T03:19:24.888Z,12.93
2023-04-07T03:21:51.677Z,12.98
2023-04-07T03:24:18.546Z,11.27
2023-04-07T03:26:45.346Z,11.25
2023-04-07T03:29:12.298Z,13.90
2023-04-07T03:31:38.940Z,12.70
2023-04-07T03:34:05.822Z,10.10
2023-04-07T03:36:33.079Z,11.38
2023-04-07T03:38:59.978Z,10.38
2023-04-07T03:41:26.567Z,10.70
2023-04-07T03:43:53.428Z,11.80
2023-04-07T03:46:21.457Z,12.38
2023-04-07T03:48:48.272Z,7.97
2023-04-07T03:51:16.241Z,9.32
2023-04-07T03:53:42.849Z,9.98
2023-04-07T03:56:09.774Z,11.80
2023-04-07T03:58:36.554Z,9.25
2023-04-07T04:01:03.500Z,9.55
2023-04-07T04:03:30.428Z,12.35
2023-04-07T04:05:57.151Z,9.57
2023-04-07T04:08:24.130Z,14.20
2023-04-07T04:10:51.471Z,21.77
2023-04-07T04:13:18.089Z,26.15
2023-04-07T04:15:44.822Z,23.23
2023-04-07T04:18:11.700Z,27.02
2023-04-07T04:20:38.421Z,21.75
2023-04-07T04:23:05.074Z,24.92
2023-04-07T04:25:31.727Z,21.92
2023-04-07T04:27:58.339Z,21.98
2023-04-07T04:30:25.146Z,22.50
2023-04-07T04:32:52.000Z,20.75
2023-04-07T04:35:18.773Z,30.00
2023-04-07T04:37:45.364Z,27.27
2023-04-07T04:40:12.524Z,27.77
2023-04-07T04:42:39.165Z,28.88
2023-04-07T04:45:06.711Z,28.48
2023-04-07T04:47:33.322Z,23.65
2023-04-07T04:50:00.119Z,22.77
2023-04-07T04:52:27.342Z,22.25
2023-04-07T04:54:54.028Z,21.80
2023-04-07T04:57:21.011Z,28.48
2023-04-07T04:59:47.968Z,27.10
2023-04-07T05:02:14.911Z,22.77
2023-04-07T05:04:41.709Z,26.80
2023-04-07T05:07:08.563Z,37.90
2023-04-07T05:09:35.377Z,27.60
2023-04-07T05:12:02.590Z,25.02
2023-04-07T05:14:29.308Z,23.55
2023-04-07T05:16:55.993Z,30.52
2023-04-07T05:19:22.758Z,29.85
2023-04-07T05:21:49.436Z,32.90
2023-04-07T05:24:16.551Z,34.47
2023-04-07T05:26:43.192Z,35.67
2023-04-07T05:29:09.851Z,25.17
2023-04-07T05:31:37.521Z,32.88
2023-04-07T05:34:04.191Z,23.48
2023-04-07T05:36:31.784Z,24.17
2023-04-07T05:38:58.525Z,24.00
2023-04-07T05:41:25.289Z,30.95
2023-04-07T05:43:52.179Z,27.38
2023-04-07T05:46:19.130Z,18.77
2023-04-07T05:48:45.883Z,29.67
2023-04-07T05:51:12.494Z,25.30
2023-04-07T05:53:39.214Z,31.52
2023-04-07T05:56:06.113Z,26.60
2023-04-07T05:58:33.142Z,25.73
2023-04-07T06:00:59.699Z,24.30
2023-04-07T06:03:26.565Z,26.02
2023-04-07T06:05:53.492Z,23.33
2023-04-07T06:08:20.167Z,23.77
2023-04-07T06:10:46.892Z,22.77
2023-04-07T06:13:13.624Z,25.02
2023-04-07T06:15:40.516Z,24.83
2023-04-07T06:18:07.156Z,23.23
2023-04-07T06:20:33.835Z,23.40
2023-04-07T06:23:00.444Z,30.35
2023-04-07T06:25:27.281Z,19.83
2023-04-07T06:27:54.906Z,22.00
2023-04-07T06:30:21.508Z,14.80
2023-04-07T06:32:48.330Z,14.57
2023-04-07T06:35:15.006Z,11.93
2023-04-07T06:37:41.758Z,11.93
2023-04-07T06:40:09.024Z,7.78
2023-04-07T06:42:35.756Z,7.10
2023-04-07T06:45:02.425Z,9.27
2023-04-07T06:47:29.356Z,9.45
2023-04-07T06:49:56.260Z,13.63
2023-04-07T06:52:22.956Z,7.72
2023-04-07T06:54:49.588Z,7.47
2023-04-07T06:57:16.278Z,7.88
2023-04-07T06:59:42.993Z,8.65
2023-04-07T07:02:09.735Z,8.68
2023-04-07T07:04:36.663Z,9.90
2023-04-07T07:07:03.525Z,6.13
2023-04-07T07:09:30.161Z,9.25
2023-04-07T07:11:57.660Z,7.55
2023-04-07T07:14:24.385Z,7.68
2023-04-07T07:16:51.094Z,5.88
2023-04-07T07:19:17.690Z,14.57
2023-04-07T07:21:44.441Z,10.60
2023-04-07T07:24:11.091Z,7.78
2023-04-07T07:26:37.681Z,5.22
2023-04-07T07:29:04.415Z,8.57
2023-04-07T07:31:31.634Z,8.05
2023-04-07T07:33:58.441Z,5.65
2023-04-07T07:36:25.224Z,7.45
2023-04-07T07:38:51.968Z,7.22
2023-04-07T07:41:18.653Z,7.28
2023-04-07T07:43:45.597Z,7.82
2023-04-07T07:46:12.435Z,7.32
2023-04-07T07:48:39.146Z,7.35
2023-04-07T07:51:06.227Z,9.40
2023-04-07T07:53:32.844Z,9.90
2023-04-07T07:55:59.554Z,8.40
2023-04-07T07:58:26.228Z,7.28
2023-04-07T08:00:52.845Z,13.55
2023-04-07T08:03:22.708Z,5.90
2023-04-07T08:05:49.626Z,9.90
2023-04-07T08:08:16.253Z,14.70
2023-04-07T08:10:42.873Z,5.28
2023-04-07T08:13:10.781Z,11.23
2023-04-07T08:15:37.499Z,9.70
2023-04-07T08:18:04.882Z,7.20
2023-04-07T08:20:32.437Z,8.98
2023-04-07T08:23:00.730Z,6.88
2023-04-07T08:25:27.563Z,7.53
2023-04-07T08:27:54.223Z,7.97
2023-04-07T08:30:23.844Z,6.82
2023-04-07T08:32:50.951Z,6.13
2023-04-07T08:35:17.705Z,6.00
2023-04-07T08:37:44.609Z,9.25
2023-04-07T08:40:12.381Z,8.82
2023-04-07T08:42:42.945Z,5.07
2023-04-07T08:45:10.106Z,6.53
2023-04-07T08:47:38.032Z,8.40
2023-04-07T08:50:07.988Z,6.68
2023-04-07T08:52:44.276Z,9.73
2023-04-07T08:55:11.802Z,7.25
2023-04-07T08:57:39.157Z,6.47
2023-04-07T09:00:06.459Z,8.82
2023-04-07T09:02:39.697Z,7.20
2023-04-07T09:05:09.012Z,6.57
2023-04-07T09:07:37.187Z,6.60
2023-04-07T09:10:04.763Z,7.85
2023-04-07T09:12:32.585Z,7.60
2023-04-07T09:14:59.424Z,7.80
2023-04-07T09:17:27.678Z,8.35
2023-04-07T09:19:58.484Z,9.05
2023-04-07T09:22:47.423Z,7.50
2023-04-07T09:25:26.204Z,7.07
2023-04-07T09:28:03.330Z,8.77
2023-04-07T09:30:32.391Z,5.97
2023-04-07T09:33:01.163Z,5.35
2023-04-07T09:35:28.862Z,9.57
2023-04-07T09:38:09.500Z,9.05
2023-04-07T09:40:37.398Z,6.28
2023-04-07T09:43:05.533Z,7.85
2023-04-07T09:45:36.137Z,8.73
2023-04-07T09:48:21.760Z,9.23
2023-04-07T09:50:52.069Z,8.93
2023-04-07T09:53:23.374Z,12.63
2023-04-07T09:55:50.827Z,7.55
2023-04-07T09:58:18.973Z,8.63
2023-04-07T10:00:45.926Z,8.23
2023-04-07T10:03:13.548Z,8.95
2023-04-07T10:05:41.336Z,12.55
2023-04-07T10:08:08.202Z,14.20
2023-04-07T10:10:36.793Z,8.30
2023-04-07T10:13:06.261Z,10.75
2023-04-07T10:15:33.395Z,10.55
2023-04-07T10:18:00.912Z,14.98
2023-04-07T10:20:29.138Z,9.38
2023-04-07T10:23:02.442Z,12.32
2023-04-07T10:25:29.943Z,12.50
2023-04-07T10:28:00.370Z,7.03
2023-04-07T10:30:29.862Z,9.52
2023-04-07T10:33:02.432Z,9.30
2023-04-07T10:35:29.946Z,10.57
2023-04-07T10:38:10.905Z,5.70
2023-04-07T10:40:38.287Z,10.52
2023-04-07T10:43:09.602Z,8.60
2023-04-07T10:45:48.948Z,8.10
2023-04-07T10:48:17.379Z,9.13
2023-04-07T10:51:05.223Z,8.45
2023-04-07T10:53:32.318Z,8.32
2023-04-07T10:55:59.424Z,6.90
2023-04-07T10:58:30.854Z,6.28
2023-04-07T11:00:57.518Z,8.30
2023-04-07T11:03:25.778Z,10.65
2023-04-07T11:05:53.221Z,8.10
2023-04-07T11:08:36.358Z,10.68
2023-04-07T11:11:09.473Z,18.85
2023-04-07T11:13:42.493Z,12.68
2023-04-07T11:16:09.630Z,7.90
2023-04-07T11:18:37.620Z,9.30
2023-04-07T11:21:08.298Z,8.70
2023-04-07T11:23:46.075Z,11.25
2023-04-07T11:26:15.140Z,9.10
2023-04-07T11:28:49.220Z,10.68
2023-04-07T11:31:36.365Z,10.05
2023-04-07T11:34:05.194Z,13.07
2023-04-07T11:36:38.221Z,10.00
2023-04-07T11:39:05.272Z,9.95
2023-04-07T11:41:33.571Z,9.77
2023-04-07T11:44:11.151Z,12.50
2023-04-07T11:46:59.752Z,11.80
2023-04-07T11:49:28.774Z,8.25
2023-04-07T11:52:04.722Z,8.27
2023-04-07T11:54:44.013Z,10.23
2023-04-07T11:57:13.014Z,9.27
2023-04-07T11:59:42.879Z,9.50
2023-04-07T12:02:09.901Z,9.82
2023-04-07T12:04:40.172Z,11.18
2023-04-07T12:07:09.374Z,8.73
2023-04-07T12:09:36.361Z,8.52
2023-04-07T12:12:06.367Z,19.50
2023-04-07T12:14:33.530Z,11.07
2023-04-07T12:17:03.262Z,10.32
2023-04-07T12:19:33.648Z,6.75
2023-04-07T12:22:00.724Z,9.95
2023-04-07T12:24:27.421Z,9.55
2023-04-07T12:26:54.045Z,9.18
2023-04-07T12:29:20.709Z,9.45
2023-04-07T12:31:50.145Z,9.82
2023-04-07T12:34:17.893Z,9.73
2023-04-07T12:36:44.911Z,10.32
2023-04-07T12:39:11.975Z,8.40
2023-04-07T12:41:41.120Z,8.70
2023-04-07T12:44:08.171Z,8.40
2023-04-07T12:46:34.921Z,12.40
2023-04-07T12:49:01.825Z,8.60
2023-04-07T12:51:29.099Z,10.05
2023-04-07T12:53:55.814Z,8.95
2023-04-07T12:56:22.546Z,10.85
2023-04-07T12:58:49.842Z,7.47
2023-04-07T13:01:16.943Z,11.70
2023-04-07T13:03:44.188Z,12.25
2023-04-07T13:06:11.787Z,11.77
2023-04-07T13:08:39.585Z,12.98
2023-04-07T13:11:06.699Z,8.20
2023-04-07T13:13:33.568Z,7.88
2023-04-07T13:16:00.319Z,8.45
2023-04-07T13:18:27.074Z,9.60
2023-04-07T13:21:13.224Z,11.65
2023-04-07T13:23:43.912Z,7.70
2023-04-07T13:26:10.922Z,8.95
2023-04-07T13:28:38.102Z,8.95
2023-04-07T13:31:04.882Z,13.40
2023-04-07T13:33:31.490Z,9.80
2023-04-07T13:35:58.406Z,11.05
2023-04-07T13:38:25.244Z,9.38
2023-04-07T13:40:51.837Z,10.93
2023-04-07T13:43:19.166Z,15.20
2023-04-07T13:45:47.002Z,9.98
2023-04-07T13:48:13.724Z,8.27
2023-04-07T13:50:41.068Z,9.90
2023-04-07T13:53:07.770Z,9.95
2023-04-07T13:55:34.439Z,10.25
2023-04-07T13:58:01.364Z,7.68
2023-04-07T14:00:28.304Z,11.60
2023-04-07T14:02:56.238Z,14.27
2023-04-07T14:05:23.461Z,16.83
2023-04-07T14:07:51.107Z,9.73
2023-04-07T14:10:18.313Z,12.10
2023-04-07T14:12:45.052Z,8.77
2023-04-07T14:15:11.892Z,11.15
2023-04-07T14:17:38.760Z,12.10
2023-04-07T14:20:06.283Z,10.98
2023-04-07T14:22:32.907Z,13.07
2023-04-07T14:24:59.860Z,14.45
2023-04-07T14:27:27.312Z,10.10
2023-04-07T14:29:56.204Z,10.95
2023-04-07T14:32:23.043Z,11.13
2023-04-07T14:34:50.526Z,13.50
2023-04-07T14:37:18.740Z,9.88
2023-04-07T14:39:51.774Z,11.75
2023-04-07T14:42:29.842Z,11.82
2023-04-07T14:44:56.740Z,16.88
2023-04-07T14:47:23.700Z,13.25
2023-04-07T14:49:53.227Z,12.50
2023-04-07T14:52:21.794Z,11.27
2023-04-07T14:54:48.666Z,7.97
2023-04-07T14:57:16.604Z,14.77
2023-04-07T14:59:43.656Z,8.63
2023-04-07T15:02:10.534Z,10.07
2023-04-07T15:04:37.392Z,8.82
2023-04-07T15:07:04.941Z,12.98
2023-04-07T15:09:31.921Z,8.27
2023-04-07T15:12:00.433Z,11.52
2023-04-07T15:14:27.203Z,9.05
2023-04-07T15:16:53.932Z,11.55
2023-04-07T15:19:20.699Z,10.60
2023-04-07T15:21:47.327Z,8.40
2023-04-07T15:24:16.012Z,13.30
2023-04-07T15:26:43.159Z,12.27
2023-04-07T15:29:09.780Z,12.35
2023-04-07T15:31:36.559Z,10.63
2023-04-07T15:34:03.317Z,14.80
2023-04-07T15:36:30.124Z,11.90
2023-04-07T15:38:57.054Z,11.73
2023-04-07T15:41:23.901Z,10.95
2023-04-07T15:43:51.503Z,18.77
2023-04-07T15:46:18.124Z,15.48
2023-04-07T15:48:44.784Z,13.32
2023-04-07T15:51:11.456Z,15.30
2023-04-07T15:53:38.076Z,21.85
2023-04-07T15:56:04.815Z,11.23
2023-04-07T15:58:32.476Z,10.63
2023-04-07T16:00:59.893Z,12.27
2023-04-07T16:03:28.365Z,12.65
2023-04-07T16:05:56.006Z,11.88
2023-04-07T16:08:23.051Z,12.18
2023-04-07T16:10:49.863Z,13.70
2023-04-07T16:13:16.862Z,16.55
2023-04-07T16:15:44.115Z,15.15
2023-04-07T16:18:12.213Z,22.08
2023-04-07T16:20:39.319Z,11.65
2023-04-07T16:23:06.071Z,14.20
2023-04-07T16:25:32.810Z,12.50
2023-04-07T16:27:59.477Z,9.18
2023-04-07T16:30:26.461Z,13.88
2023-04-07T16:32:53.104Z,11.73
2023-04-07T16:35:19.946Z,12.07
2023-04-07T16:37:46.802Z,10.05
2023-04-07T16:40:13.961Z,10.77
2023-04-07T16:42:40.995Z,13.20
2023-04-07T16:45:08.611Z,13.40
2023-04-07T16:47:35.889Z,8.30
2023-04-07T16:50:04.253Z,14.02
2023-04-07T16:52:31.778Z,12.23
2023-04-07T16:54:58.410Z,15.23
2023-04-07T16:57:25.230Z,12.52
2023-04-07T16:59:52.286Z,14.55
2023-04-07T17:02:19.225Z,15.73
2023-04-07T17:04:46.311Z,19.27
2023-04-07T17:07:12.980Z,12.52
2023-04-07T17:09:39.860Z,18.48
2023-04-07T17:12:06.894Z,28.60
2023-04-07T17:14:34.169Z,16.20
2023-04-07T17:17:01.374Z,19.23
2023-04-07T17:19:28.264Z,15.18
2023-04-07T17:21:55.196Z,14.85
2023-04-07T17:24:22.806Z,11.43
2023-04-07T17:26:49.690Z,15.68
2023-04-07T17:29:17.197Z,13.73
2023-04-07T17:31:44.003Z,14.25
2023-04-07T17:34:11.929Z,14.45
2023-04-07T17:36:39.084Z,13.13
2023-04-07T17:39:05.704Z,17.60
2023-04-07T17:41:35.816Z,15.77
2023-04-07T17:44:02.682Z,11.93
2023-04-07T17:46:29.814Z,18.50
2023-04-07T17:48:59.771Z,18.92
2023-04-07T17:51:27.687Z,14.20
2023-04-07T17:53:55.750Z,13.00
2023-04-07T17:56:24.468Z,14.60
2023-04-07T17:58:51.326Z,17.15
2023-04-07T18:01:18.100Z,12.43
2023-04-07T18:03:45.437Z,12.73
2023-04-07T18:06:18.492Z,11.68
2023-04-07T18:08:46.647Z,12.45
2023-04-07T18:11:14.086Z,12.23
2023-04-07T18:13:41.073Z,15.43
2023-04-07T18:16:09.652Z,15.02
2023-04-07T18:18:38.152Z,19.70
2023-04-07T18:21:06.512Z,12.35
2023-04-07T18:23:33.175Z,13.88
2023-04-07T18:26:03.150Z,15.80
2023-04-07T18:28:30.046Z,22.75
2023-04-07T18:31:07.905Z,28.00
2023-04-07T18:33:35.758Z,27.38
2023-04-07T18:36:07.664Z,27.50
2023-04-07T18:38:36.064Z,23.15
2023-04-07T18:41:03.824Z,17.10
2023-04-07T18:43:31.541Z,23.65
2023-04-07T18:45:58.685Z,23.35
2023-04-07T18:48:26.580Z,18.95
2023-04-07T18:50:54.859Z,15.55
2023-04-07T18:53:22.334Z,13.98
2023-04-07T18:55:49.446Z,17.35
2023-04-07T18:58:16.383Z,14.77
2023-04-07T19:00:43.386Z,14.45
2023-04-07T19:03:10.156Z,18.75
2023-04-07T19:05:39.609Z,14.93
2023-04-07T19:08:06.808Z,16.52
2023-04-07T19:10:33.894Z,16.75
2023-04-07T19:13:01.734Z,16.13
2023-04-07T19:15:34.051Z,16.38
2023-04-07T19:20:33.744Z,19.65
2023-04-07T19:23:02.046Z,14.77
2023-04-07T19:25:28.966Z,21.00
2023-04-07T19:27:55.729Z,18.30
2023-04-07T19:30:22.530Z,18.67
2023-04-07T19:32:49.225Z,23.52
2023-04-07T19:35:16.730Z,31.40
2023-04-07T19:37:43.465Z,30.50
2023-04-07T19:40:10.831Z,30.30
2023-04-07T19:42:39.415Z,32.58
2023-04-07T19:45:08.218Z,42.75
2023-04-07T19:47:36.159Z,40.92
2023-04-07T19:50:04.083Z,35.72
2023-04-07T19:52:32.095Z,34.00
2023-04-07T19:54:59.857Z,31.38
2023-04-07T19:57:26.739Z,30.55
2023-04-07T19:59:53.352Z,31.83
2023-04-07T20:02:20.191Z,27.58
2023-04-07T20:04:47.235Z,22.50
2023-04-07T20:07:13.798Z,34.85
2023-04-07T20:09:40.569Z,36.30
2023-04-07T20:12:07.275Z,32.00
2023-04-07T20:14:33.897Z,29.65
2023-04-07T20:17:00.637Z,26.42
2023-04-07T20:19:27.242Z,25.38
2023-04-07T20:21:53.833Z,30.95
2023-04-07T20:24:20.472Z,31.70
2023-04-07T20:26:47.087Z,27.00
2023-04-07T20:29:13.698Z,27.45
2023-04-07T20:31:41.265Z,34.75
2023-04-07T20:34:07.867Z,32.13
2023-04-07T20:36:34.519Z,40.05
2023-04-07T20:39:01.358Z,32.47
2023-04-07T20:41:28.692Z,29.17
2023-04-07T20:43:55.857Z,32.08
2023-04-07T20:46:22.666Z,28.60
2023-04-07T20:48:49.648Z,29.00
2023-04-07T20:51:16.744Z,32.33
2023-04-07T20:53:43.421Z,35.83
2023-04-07T20:56:10.776Z,38.35
2023-04-07T20:58:37.364Z,38.95
2023-04-07T21:01:03.938Z,44.35
2023-04-07T21:03:30.944Z,52.95
2023-04-07T21:05:57.906Z,49.92
2023-04-07T21:08:24.716Z,40.30
2023-04-07T21:10:52.652Z,39.55
2023-04-07T21:13:20.120Z,35.75
2023-04-07T21:15:46.786Z,32.28
2023-04-07T21:18:13.543Z,28.55
2023-04-07T21:20:40.390Z,30.00
2023-04-07T21:23:08.530Z,36.65
2023-04-07T21:25:38.151Z,39.22
2023-04-07T21:28:04.986Z,35.97
2023-04-07T21:30:32.748Z,33.15
2023-04-07T21:32:59.536Z,36.58
2023-04-07T21:35:29.108Z,32.60
2023-04-07T21:37:55.980Z,40.90
2023-04-07T21:40:22.888Z,29.15
2023-04-07T21:42:51.864Z,29.02
2023-04-07T21:45:19.565Z,26.20
2023-04-07T21:47:46.820Z,26.65
2023-04-07T21:50:13.761Z,24.73
2023-04-07T21:52:41.255Z,27.30
2023-04-07T21:55:10.127Z,23.55
2023-04-07T21:57:36.937Z,29.92
2023-04-07T22:00:04.085Z,23.48
2023-04-07T22:02:30.993Z,22.92
2023-04-07T22:04:57.950Z,31.25
2023-04-07T22:07:24.670Z,24.38
2023-04-07T22:09:51.426Z,26.95
2023-04-07T22:12:18.034Z,30.23
2023-04-07T22:14:45.386Z,30.65
2023-04-07T22:17:11.993Z,32.15
2023-04-07T22:19:38.607Z,34.70
2023-04-07T22:22:07.740Z,40.80
2023-04-07T22:24:35.102Z,37.92
2023-04-07T22:27:02.259Z,49.42
2023-04-07T22:29:28.894Z,43.05
2023-04-07T22:31:55.698Z,36.53
2023-04-07T22:34:22.358Z,42.08
2023-04-07T22:36:49.083Z,41.97
2023-04-07T22:39:15.689Z,36.58
2023-04-07T22:41:42.325Z,32.33
2023-04-07T22:44:08.960Z,35.17
2023-04-07T22:46:35.718Z,26.15
2023-04-07T22:49:02.403Z,25.75
2023-04-07T22:51:30.061Z,24.27
2023-04-07T22:53:57.269Z,19.67
2023-04-07T22:56:24.395Z,18.95
2023-04-07T22:58:51.408Z,19.02
2023-04-07T23:01:18.431Z,17.13
2023-04-07T23:03:45.414Z,17.50
2023-04-07T23:06:12.113Z,21.40
2023-04-07T23:08:38.718Z,25.80
2023-04-07T23:11:09.204Z,20.55
2023-04-07T23:13:35.816Z,25.27
2023-04-07T23:16:03.962Z,22.90
2023-04-07T23:18:31.567Z,17.73
2023-04-07T23:20:58.188Z,20.73
2023-04-07T23:23:24.832Z,17.60
2023-04-07T23:25:51.458Z,19.23
2023-04-07T23:28:18.319Z,14.20
2023-04-07T23:30:44.891Z,16.45
2023-04-07T23:33:12.481Z,22.50
2023-04-07T23:35:39.156Z,21.95
2023-04-07T23:38:08.812Z,20.50
2023-04-07T23:40:35.487Z,15.38
2023-04-07T23:43:02.269Z,22.85
2023-04-07T23:45:28.897Z,22.05
2023-04-07T23:47:55.653Z,18.45
2023-04-07T23:50:23.080Z,27.08
2023-04-07T23:52:49.924Z,18.70
2023-04-07T23:55:16.682Z,19.55
2023-04-07T23:57:43.569Z,16.48
